Observation data for Brownfield on 12/09/2018      Previous  Date       Current Mesonet Observations  Soil Data  Daily Summary Page  Observations in Plain Language
KBWS 090600Z 31003KT M07/M07 A303 RMK A01 T10651072  RH  096%=      5-min Rain = 0
KBWS 090605Z 32003KT M07/M07 A303 RMK A01 T10671074  RH  096%=      5-min Rain = 0
KBWS 090610Z 34002KT M07/M07 A303 RMK A01 T10661073  RH  096%=      5-min Rain = 0
KBWS 090615Z 35002KT M06/M07 A303 RMK A01 T10631069  RH  097%=      5-min Rain = 0
KBWS 090620Z 33001KT M06/M07 A303 RMK A01 T10621069  RH  096%=      5-min Rain = 0
KBWS 090625Z 28005KT M07/M07 A303 RMK A01 T10651073  RH  095%=      5-min Rain = 0
KBWS 090630Z 29006KT M07/M08 A303 RMK A01 T10691077  RH  095%=      5-min Rain = 0
KBWS 090635Z 29005KT M07/M08 A3029 RMK A01 T10711078  RH  096%=      5-min Rain = 0
KBWS 090640Z 30005KT M07/M08 A3029 RMK A01 T10701077  RH  096%=      5-min Rain = 0
KBWS 090645Z 29006KT M07/M08 A3029 RMK A01 T10691075  RH  097%=      5-min Rain = 0
KBWS 090650Z 30006KT M07/M08 A3029 RMK A01 T10691075  RH  096%=      5-min Rain = 0
KBWS 090655Z 30006KT M07/M08 A3029 RMK A01 T10681075  RH  096%=      5-min Rain = 0
KBWS 090700Z 31005KT M07/M08 A3029 RMK A01 T10681075  RH  096%=      5-min Rain = 0
KBWS 090705Z 31005KT M07/M07 A3029 RMK A01 T10681074  RH  096%=      5-min Rain = 0
KBWS 090710Z 31006KT M07/M07 A3029 RMK A01 T10681074  RH  096%=      5-min Rain = 0
KBWS 090715Z 31007KT M07/M08 A3029 RMK A01 T10691075  RH  096%=      5-min Rain = 0
KBWS 090720Z 31007KT M07/M08 A3029 RMK A01 T10691075  RH  096%=      5-min Rain = 0
KBWS 090725Z 31006KT M07/M08 A3028 RMK A01 T10681075  RH  096%=      5-min Rain = 0
KBWS 090730Z 31007KT M07/M08 A3028 RMK A01 T10691076  RH  096%=      5-min Rain = 0
KBWS 090735Z 30007KT M07/M08 A3028 RMK A01 T10681075  RH  096%=      5-min Rain = 0
KBWS 090740Z 31006KT M07/M08 A3028 RMK A01 T10691076  RH  096%=      5-min Rain = 0
KBWS 090745Z 31005KT M07/M08 A3028 RMK A01 T10681076  RH  096%=      5-min Rain = 0
KBWS 090750Z 32005KT M07/M08 A3028 RMK A01 T10691077  RH  095%=      5-min Rain = 0
KBWS 090755Z 31004KT M07/M08 A3028 RMK A01 T10701079  RH  095%=      5-min Rain = 0
KBWS 090800Z 31006KT M07/M08 A3028 RMK A01 T10711080  RH  095%=      5-min Rain = 0
KBWS 090805Z 32005KT M07/M08 A3028 RMK A01 T10701077  RH  096%=      5-min Rain = 0
KBWS 090810Z 32006KT M07/M08 A3028 RMK A01 T10691077  RH  096%=      5-min Rain = 0
KBWS 090815Z 32006KT M07/M08 A3028 RMK A01 T10691076  RH  096%=      5-min Rain = 0
KBWS 090820Z 31006KT M07/M08 A3028 RMK A01 T10681075  RH  096%=      5-min Rain = 0
KBWS 090825Z 32006KT M07/M08 A3028 RMK A01 T10681075  RH  096%=      5-min Rain = 0
KBWS 090830Z 33006KT M07/M07 A3028 RMK A01 T10661073  RH  096%=      5-min Rain = 0
KBWS 090835Z 31005KT M07/M08 A3028 RMK A01 T10681077  RH  095%=      5-min Rain = 0
KBWS 090840Z 31005KT M07/M08 A3028 RMK A01 T10701079  RH  095%=      5-min Rain = 0
KBWS 090845Z 30004KT M07/M08 A3028 RMK A01 T10701079  RH  095%=      5-min Rain = 0
KBWS 090850Z 30004KT M07/M08 A3028 RMK A01 T10701078  RH  095%=      5-min Rain = 0
KBWS 090855Z 31005KT M07/M08 A3028 RMK A01 T10711080  RH  094%=      5-min Rain = 0
KBWS 090900Z 30004KT M07/M08 A3028 RMK A01 T10711080  RH  094%=      5-min Rain = 0
KBWS 090905Z 30004KT M07/M08 A3028 RMK A01 T10701079  RH  095%=      5-min Rain = 0
KBWS 090910Z 30005KT M07/M08 A3028 RMK A01 T10711080  RH  094%=      5-min Rain = 0
KBWS 090915Z 31005KT M07/M08 A3028 RMK A01 T10721082  RH  094%=      5-min Rain = 0
KBWS 090920Z 30006KT M07/M08 A3028 RMK A01 T10731083  RH  094%=      5-min Rain = 0
KBWS 090925Z 31007KT M07/M08 A3028 RMK A01 T10731083  RH  094%=      5-min Rain = 0
KBWS 090930Z 31007KT M07/M08 A3028 RMK A01 T10741084  RH  094%=      5-min Rain = 0
KBWS 090935Z 31006KT M07/M09 A3028 RMK A01 T10741085  RH  094%=      5-min Rain = 0
KBWS 090940Z 32006KT M08/M08 A3028 RMK A01 T10751084  RH  094%=      5-min Rain = 0
KBWS 090945Z 33006KT M07/M08 A3028 RMK A01 T10731082  RH  094%=      5-min Rain = 0
KBWS 090950Z 34007KT M07/M08 A3028 RMK A01 T10721081  RH  094%=      5-min Rain = 0
KBWS 090955Z 33006KT M07/M08 A3029 RMK A01 T10711079  RH  095%=      5-min Rain = 0
KBWS 091000Z 31005KT M07/M08 A3029 RMK A01 T10711081  RH  094%=      5-min Rain = 0
KBWS 091005Z 31005KT M07/M08 A3028 RMK A01 T10721082  RH  094%=      5-min Rain = 0
KBWS 091010Z 31005KT M07/M08 A3028 RMK A01 T10731082  RH  094%=      5-min Rain = 0
KBWS 091015Z 31006KT M07/M08 A3028 RMK A01 T10721081  RH  095%=      5-min Rain = 0
KBWS 091020Z 31006KT M07/M08 A3028 RMK A01 T10731082  RH  095%=      5-min Rain = 0
KBWS 091025Z 30006KT M07/M08 A3029 RMK A01 T10731082  RH  094%=      5-min Rain = 0
KBWS 091030Z 31005KT M07/M08 A3029 RMK A01 T10741083  RH  094%=      5-min Rain = 0
KBWS 091035Z 31005KT M07/M08 A3029 RMK A01 T10741084  RH  094%=      5-min Rain = 0
KBWS 091040Z 32005KT M08/M09 A3029 RMK A01 T10751085  RH  094%=      5-min Rain = 0
KBWS 091045Z 31006KT M08/M09 A3029 RMK A01 T10761086  RH  094%=      5-min Rain = 0
KBWS 091050Z 32005KT M08/M09 A3029 RMK A01 T10771087  RH  093%=      5-min Rain = 0
KBWS 091055Z 32005KT M08/M09 A3029 RMK A01 T10771088  RH  094%=      5-min Rain = 0
KBWS 091100Z 33005KT M08/M09 A3029 RMK A01 T10771087  RH  094%=      5-min Rain = 0
KBWS 091105Z 33005KT M08/M09 A3029 RMK A01 T10761085  RH  094%=      5-min Rain = 0
KBWS 091110Z 33006KT M08/M08 A3029 RMK A01 T10751084  RH  094%=      5-min Rain = 0
KBWS 091115Z 34007KT M07/M08 A3029 RMK A01 T10721081  RH  095%=      5-min Rain = 0
KBWS 091120Z 34007KT M07/M08 A3029 RMK A01 T10701080  RH  094%=      5-min Rain = 0
KBWS 091125Z 34008KT M07/M08 A3029 RMK A01 T10691079  RH  094%=      5-min Rain = 0
KBWS 091130Z 34008KT M07/M08 A3029 RMK A01 T10681078  RH  094%=      5-min Rain = 0
KBWS 091135Z 33008KT M07/M08 A303 RMK A01 T10681079  RH  094%=      5-min Rain = 0
KBWS 091140Z 33008KT M07/M08 A303 RMK A01 T10671077  RH  094%=      5-min Rain = 0
KBWS 091145Z 34007KT M07/M08 A303 RMK A01 T10681077  RH  094%=      5-min Rain = 0
KBWS 091150Z 33008KT M07/M08 A303 RMK A01 T10671076  RH  095%=      5-min Rain = 0
KBWS 091155Z 33007KT M07/M08 A303 RMK A01 T10671076  RH  095%=      5-min Rain = 0
KBWS 091200Z 33006KT M07/M08 A3031 RMK A01 T10691078  RH  095%=      5-min Rain = 0
KBWS 091205Z 33005KT M07/M08 A3031 RMK A01 T10691078  RH  095%=      5-min Rain = 0
KBWS 091210Z 32005KT M07/M08 A3031 RMK A01 T10711081  RH  094%=      5-min Rain = 0
KBWS 091215Z 32005KT M07/M08 A3031 RMK A01 T10721082  RH  094%=      5-min Rain = 0
KBWS 091220Z 33005KT M07/M08 A3031 RMK A01 T10721082  RH  094%=      5-min Rain = 0
KBWS 091225Z 33004KT M07/M08 A3032 RMK A01 T10721083  RH  093%=      5-min Rain = 0
KBWS 091230Z 33004KT M07/M09 A3032 RMK A01 T10741085  RH  093%=      5-min Rain = 0
KBWS 091235Z 34005KT M07/M09 A3032 RMK A01 T10741085  RH  093%=      5-min Rain = 0
KBWS 091240Z 33005KT M07/M08 A3032 RMK A01 T10731083  RH  093%=      5-min Rain = 0
KBWS 091245Z 33005KT M07/M08 A3032 RMK A01 T10731083  RH  093%=      5-min Rain = 0
KBWS 091250Z 33005KT M07/M08 A3033 RMK A01 T10731083  RH  093%=      5-min Rain = 0
KBWS 091255Z 33005KT M07/M08 A3033 RMK A01 T10721083  RH  093%=      5-min Rain = 0
KBWS 091300Z 34005KT M07/M08 A3032 RMK A01 T10721083  RH  093%=      5-min Rain = 0
KBWS 091305Z 34005KT M07/M08 A3032 RMK A01 T10721083  RH  093%=      5-min Rain = 0
KBWS 091310Z 33005KT M07/M08 A3033 RMK A01 T10721083  RH  093%=      5-min Rain = 0
KBWS 091315Z 33005KT M07/M08 A3033 RMK A01 T10721083  RH  093%=      5-min Rain = 0
KBWS 091320Z 34005KT M07/M08 A3033 RMK A01 T10711081  RH  093%=      5-min Rain = 0
KBWS 091325Z 34005KT M07/M08 A3033 RMK A01 T10711082  RH  093%=      5-min Rain = 0
KBWS 091330Z 34005KT M07/M08 A3034 RMK A01 T10711082  RH  093%=      5-min Rain = 0
KBWS 091335Z 34005KT M07/M08 A3034 RMK A01 T10721083  RH  093%=      5-min Rain = 0
KBWS 091340Z 34006KT M07/M08 A3034 RMK A01 T10701080  RH  094%=      5-min Rain = 0
KBWS 091345Z 34005KT M07/M08 A3034 RMK A01 T10701082  RH  093%=      5-min Rain = 0
KBWS 091350Z 34006KT M07/M08 A3035 RMK A01 T10711082  RH  093%=      5-min Rain = 0
KBWS 091355Z 35006KT M07/M08 A3035 RMK A01 T10701081  RH  093%=      5-min Rain = 0
KBWS 091400Z 34006KT M07/M08 A3035 RMK A01 T10691081  RH  092%=      5-min Rain = 0
KBWS 091405Z 34006KT M07/M08 A3035 RMK A01 T10701083  RH  092%=      5-min Rain = 0
KBWS 091410Z 34006KT M07/M08 A3035 RMK A01 T10691081  RH  092%=      5-min Rain = 0
KBWS 091415Z 34006KT M07/M08 A3035 RMK A01 T10681080  RH  092%=      5-min Rain = 0
KBWS 091420Z 34006KT M07/M08 A3035 RMK A01 T10671081  RH  091%=      5-min Rain = 0
KBWS 091425Z 34005KT M07/M08 A3036 RMK A01 T10671080  RH  091%=      5-min Rain = 0
KBWS 091430Z 33005KT M07/M08 A3036 RMK A01 T10651078  RH  092%=      5-min Rain = 0
KBWS 091435Z 32006KT M06/M08 A3036 RMK A01 T10631076  RH  091%=      5-min Rain = 0
KBWS 091440Z 31005KT M06/M07 A3036 RMK A01 T10601074  RH  092%=      5-min Rain = 0
KBWS 091445Z 32005KT M06/M08 A3036 RMK A01 T10611075  RH  090%=      5-min Rain = 0
KBWS 091450Z 33005KT M06/M08 A3037 RMK A01 T10621077  RH  090%=      5-min Rain = 0
KBWS 091455Z 33005KT M06/M08 A3037 RMK A01 T10611075  RH  091%=      5-min Rain = 0
KBWS 091500Z 33006KT M06/M07 A3037 RMK A01 T10591073  RH  091%=      5-min Rain = 0
KBWS 091505Z 33005KT M06/M07 A3037 RMK A01 T10591074  RH  090%=      5-min Rain = 0
KBWS 091510Z 33005KT M06/M07 A3038 RMK A01 T10581072  RH  091%=      5-min Rain = 0
KBWS 091515Z 32004KT M06/M07 A3038 RMK A01 T10561070  RH  091%=      5-min Rain = 0
KBWS 091520Z 33005KT M05/M07 A3038 RMK A01 T10541068  RH  091%=      5-min Rain = 0
KBWS 091525Z 33005KT M05/M07 A3038 RMK A01 T10521066  RH  091%=      5-min Rain = 0
KBWS 091530Z 33006KT M05/M06 A3038 RMK A01 T10501064  RH  091%=      5-min Rain = 0
KBWS 091535Z 33007KT M05/M06 A3039 RMK A01 T10481062  RH  091%=      5-min Rain = 0
KBWS 091540Z 33007KT M05/M06 A3039 RMK A01 T10461060  RH  091%=      5-min Rain = 0
KBWS 091545Z 33007KT M04/M06 A3039 RMK A01 T10441058  RH  091%=      5-min Rain = 0
KBWS 091550Z 33007KT M04/M06 A3039 RMK A01 T10421056  RH  091%=      5-min Rain = 0
KBWS 091555Z 33007KT M04/M05 A3039 RMK A01 T10391054  RH  091%=      5-min Rain = 0
KBWS 091600Z 34007KT M04/M05 A304 RMK A01 T10381053  RH  090%=      5-min Rain = 0
KBWS 091605Z 34007KT M04/M05 A304 RMK A01 T10361052  RH  090%=      5-min Rain = 0
KBWS 091610Z 34008KT M03/M05 A304 RMK A01 T10341049  RH  090%=      5-min Rain = 0
KBWS 091615Z 34008KT M03/M05 A304 RMK A01 T10331048  RH  090%=      5-min Rain = 0
KBWS 091620Z 34007KT M03/M05 A304 RMK A01 T10311047  RH  090%=      5-min Rain = 0
KBWS 091625Z 34007KT M03/M05 A304 RMK A01 T10281045  RH  089%=      5-min Rain = 0
KBWS 091630Z 33006KT M03/M04 A304 RMK A01 T10251043  RH  089%=      5-min Rain = 0
KBWS 091635Z 33006KT M02/M04 A304 RMK A01 T10231041  RH  088%=      5-min Rain = 0
KBWS 091640Z 31006KT M02/M04 A304 RMK A01 T10191038  RH  088%=      5-min Rain = 0
KBWS 091645Z 31006KT M02/M04 A304 RMK A01 T10171038  RH  087%=      5-min Rain = 0
KBWS 091650Z 32007KT M02/M04 A304 RMK A01 T10171038  RH  087%=      5-min Rain = 0
KBWS 091655Z 31006KT M02/M04 A304 RMK A01 T10151035  RH  087%=      5-min Rain = 0
KBWS 091700Z 32007KT M02/M04 A304 RMK A01 T10151036  RH  087%=      5-min Rain = 0
KBWS 091705Z 32006KT M01/M03 A304 RMK A01 T10141034  RH  087%=      5-min Rain = 0
KBWS 091710Z 32006KT M01/M03 A304 RMK A01 T10111031  RH  087%=      5-min Rain = 0
KBWS 091715Z 32006KT M01/M03 A304 RMK A01 T10091030  RH  086%=      5-min Rain = 0
KBWS 091720Z 32006KT M01/M03 A304 RMK A01 T10081030  RH  086%=      5-min Rain = 0
KBWS 091725Z 32006KT M01/M03 A304 RMK A01 T10051026  RH  086%=      5-min Rain = 0
KBWS 091730Z 32006KT M00/M03 A304 RMK A01 T10021025  RH  086%=      5-min Rain = 0
KBWS 091735Z 31005KT 00/M02 A3039 RMK A01 T00011022  RH  085%=      5-min Rain = 0
KBWS 091740Z 30005KT 01/M02 A3039 RMK A01 T00071018  RH  084%=      5-min Rain = 0
KBWS 091745Z 30006KT 01/M02 A3039 RMK A01 T00081018  RH  083%=      5-min Rain = 0
KBWS 091750Z 31006KT 01/M02 A3039 RMK A01 T00091018  RH  083%=      5-min Rain = 0
KBWS 091755Z 31006KT 01/M02 A3039 RMK A01 T00091017  RH  084%=      5-min Rain = 0
KBWS 091800Z 32006KT 01/M02 A3039 RMK A01 T00081017  RH  084%=      5-min Rain = 0
KBWS 091805Z 33006KT 01/M02 A3038 RMK A01 T00101017  RH  083%=      5-min Rain = 0
KBWS 091810Z 33006KT 01/M02 A3038 RMK A01 T00101017  RH  083%=      5-min Rain = 0
KBWS 091815Z 33006KT 01/M02 A3038 RMK A01 T00111016  RH  084%=      5-min Rain = 0
KBWS 091820Z 32006KT 01/M02 A3038 RMK A01 T00121015  RH  083%=      5-min Rain = 0
KBWS 091825Z 33005KT 02/M01 A3037 RMK A01 T00151013  RH  083%=      5-min Rain = 0
KBWS 091830Z 32004KT 02/M01 A3037 RMK A01 T00181013  RH  081%=      5-min Rain = 0
KBWS 091835Z 32004KT 02/M01 A3037 RMK A01 T00211013  RH  079%=      5-min Rain = 0
KBWS 091840Z 32005KT 02/M01 A3037 RMK A01 T00201013  RH  080%=      5-min Rain = 0
KBWS 091845Z 32003KT 02/M01 A3036 RMK A01 T00231011  RH  079%=      5-min Rain = 0
KBWS 091850Z 31003KT 03/M01 A3036 RMK A01 T00311007  RH  077%=      5-min Rain = 0
KBWS 091855Z 33003KT 03/M01 A3036 RMK A01 T00301010  RH  076%=      5-min Rain = 0
KBWS 091900Z 34002KT 03/M01 A3036 RMK A01 T00301010  RH  076%=      5-min Rain = 0
KBWS 091905Z 32003KT 03/M01 A3036 RMK A01 T00301011  RH  076%=      5-min Rain = 0
KBWS 091910Z 32003KT 03/M01 A3036 RMK A01 T00261013  RH  076%=      5-min Rain = 0
KBWS 091915Z 33003KT 03/M01 A3036 RMK A01 T00281012  RH  076%=      5-min Rain = 0
KBWS 091920Z 33002KT 03/M01 A3035 RMK A01 T00311010  RH  075%=      5-min Rain = 0
KBWS 091925Z 33003KT 03/M01 A3035 RMK A01 T00311013  RH  074%=      5-min Rain = 0
KBWS 091930Z 33002KT 03/M01 A3035 RMK A01 T00341010  RH  074%=      5-min Rain = 0
KBWS 091935Z 00002KT 04/M01 A3035 RMK A01 T00351011  RH  073%=      5-min Rain = 0
KBWS 091940Z 00003KT 03/M01 A3035 RMK A01 T00331012  RH  073%=      5-min Rain = 0
KBWS 091945Z 35003KT 03/M01 A3034 RMK A01 T00331012  RH  073%=      5-min Rain = 0
KBWS 091950Z 33003KT 03/M01 A3034 RMK A01 T00331013  RH  073%=      5-min Rain = 0
KBWS 091955Z 33003KT 03/M01 A3034 RMK A01 T00331012  RH  073%=      5-min Rain = 0
KBWS 092000Z 32002KT 04/M01 A3034 RMK A01 T00361012  RH  072%=      5-min Rain = 0
KBWS 092005Z 34002KT 04/M01 A3034 RMK A01 T00381014  RH  070%=      5-min Rain = 0
KBWS 092010Z 34003KT 04/M01 A3034 RMK A01 T00371012  RH  071%=      5-min Rain = 0
KBWS 092015Z 00003KT 04/M01 A3034 RMK A01 T00371013  RH  071%=      5-min Rain = 0
KBWS 092020Z 00003KT 04/M02 A3034 RMK A01 T00361015  RH  070%=      5-min Rain = 0
KBWS 092025Z 00004KT 04/M02 A3034 RMK A01 T00351017  RH  070%=      5-min Rain = 0
KBWS 092030Z 35003KT 04/M02 A3034 RMK A01 T00351020  RH  068%=      5-min Rain = 0
KBWS 092035Z 34003KT 04/M02 A3034 RMK A01 T00381018  RH  067%=      5-min Rain = 0
KBWS 092040Z 35002KT 04/M02 A3034 RMK A01 T00401016  RH  068%=      5-min Rain = 0
KBWS 092045Z 36002KT 04/M02 A3034 RMK A01 T00421016  RH  067%=      5-min Rain = 0
KBWS 092050Z 00002KT 04/M02 A3034 RMK A01 T00411017  RH  067%=      5-min Rain = 0
KBWS 092055Z 34002KT 04/M01 A3034 RMK A01 T00421014  RH  068%=      5-min Rain = 0
KBWS 092100Z 36003KT 04/M02 A3034 RMK A01 T00411020  RH  065%=      5-min Rain = 0
KBWS 092105Z 00003KT 04/M02 A3034 RMK A01 T00401019  RH  066%=      5-min Rain = 0
KBWS 092110Z 01003KT 04/M02 A3034 RMK A01 T00401017  RH  067%=      5-min Rain = 0
KBWS 092115Z 01004KT 04/M02 A3033 RMK A01 T00401015  RH  068%=      5-min Rain = 0
KBWS 092120Z 36003KT 04/M02 A3033 RMK A01 T00411016  RH  067%=      5-min Rain = 0
KBWS 092125Z 34003KT 04/M02 A3033 RMK A01 T00431017  RH  066%=      5-min Rain = 0
KBWS 092130Z 34003KT 04/M02 A3033 RMK A01 T00431017  RH  066%=      5-min Rain = 0
KBWS 092135Z 34003KT 04/M02 A3033 RMK A01 T00421016  RH  067%=      5-min Rain = 0
KBWS 092140Z 32003KT 04/M01 A3033 RMK A01 T00431012  RH  068%=      5-min Rain = 0
KBWS 092145Z 32003KT 04/M01 A3033 RMK A01 T00441012  RH  068%=      5-min Rain = 0
KBWS 092150Z 33003KT 04/M01 A3033 RMK A01 T00431011  RH  069%=      5-min Rain = 0
KBWS 092155Z 34002KT 04/M01 A3033 RMK A01 T00431009  RH  070%=      5-min Rain = 0
KBWS 092200Z 34003KT 04/M01 A3033 RMK A01 T00431007  RH  071%=      5-min Rain = 0
KBWS 092205Z 34003KT 04/M01 A3033 RMK A01 T00421008  RH  070%=      5-min Rain = 0
KBWS 092210Z 34003KT 04/M01 A3033 RMK A01 T00411011  RH  070%=      5-min Rain = 0
KBWS 092215Z 33003KT 04/M01 A3034 RMK A01 T00421011  RH  069%=      5-min Rain = 0
KBWS 092220Z 33003KT 04/M01 A3034 RMK A01 T00411012  RH  069%=      5-min Rain = 0
KBWS 092225Z 34004KT 04/M01 A3034 RMK A01 T00401012  RH  070%=      5-min Rain = 0
KBWS 092230Z 33004KT 04/M01 A3034 RMK A01 T00381011  RH  071%=      5-min Rain = 0
KBWS 092235Z 35004KT 04/M01 A3034 RMK A01 T00381011  RH  072%=      5-min Rain = 0
KBWS 092240Z 34004KT 04/M01 A3034 RMK A01 T00371012  RH  071%=      5-min Rain = 0
KBWS 092245Z 36004KT 04/M01 A3034 RMK A01 T00361012  RH  072%=      5-min Rain = 0
KBWS 092250Z 35004KT 03/M01 A3034 RMK A01 T00341011  RH  073%=      5-min Rain = 0
KBWS 092255Z 35003KT 03/M01 A3034 RMK A01 T00341011  RH  073%=      5-min Rain = 0
KBWS 092300Z 34004KT 03/M01 A3034 RMK A01 T00341011  RH  073%=      5-min Rain = 0
KBWS 092305Z 33004KT 03/M01 A3034 RMK A01 T00331012  RH  073%=      5-min Rain = 0
KBWS 092310Z 32003KT 03/M01 A3034 RMK A01 T00321013  RH  073%=      5-min Rain = 0
KBWS 092315Z 32003KT 03/M01 A3034 RMK A01 T00321012  RH  074%=      5-min Rain = 0
KBWS 092320Z 33003KT 03/M01 A3034 RMK A01 T00291013  RH  074%=      5-min Rain = 0
KBWS 092325Z 34003KT 03/M01 A3034 RMK A01 T00281014  RH  075%=      5-min Rain = 0
KBWS 092330Z 35003KT 03/M02 A3034 RMK A01 T00271015  RH  075%=      5-min Rain = 0
KBWS 092335Z 36003KT 02/M02 A3034 RMK A01 T00241016  RH  076%=      5-min Rain = 0
KBWS 092340Z 00004KT 02/M02 A3034 RMK A01 T00231017  RH  076%=      5-min Rain = 0
KBWS 092345Z 01004KT 02/M02 A3034 RMK A01 T00191018  RH  078%=      5-min Rain = 0
KBWS 092350Z 02004KT 02/M02 A3034 RMK A01 T00151017  RH  080%=      5-min Rain = 0
KBWS 092355Z 02006KT 01/M02 A3034 RMK A01 T00111018  RH  082%=      5-min Rain = 0
KBWS 100000Z 02006KT 01/M02 A3034 RMK A01 T00141018  RH  080%=      5-min Rain = 0
KBWS 100005Z 02006KT 01/M02 A3034 RMK A01 T00141018  RH  080%=      5-min Rain = 0
KBWS 100010Z 02006KT 01/M02 A3035 RMK A01 T00131017  RH  081%=      5-min Rain = 0
KBWS 100015Z 03007KT 01/M02 A3035 RMK A01 T00091018  RH  083%=      5-min Rain = 0
KBWS 100020Z 02005KT 01/M02 A3035 RMK A01 T00091017  RH  084%=      5-min Rain = 0
KBWS 100025Z 02005KT 01/M02 A3035 RMK A01 T00081017  RH  084%=      5-min Rain = 0
KBWS 100030Z 02004KT 01/M02 A3035 RMK A01 T00091015  RH  085%=      5-min Rain = 0
KBWS 100035Z 02004KT 01/M02 A3035 RMK A01 T00111015  RH  084%=      5-min Rain = 0
KBWS 100040Z 03004KT 01/M02 A3035 RMK A01 T00101016  RH  084%=      5-min Rain = 0
KBWS 100045Z 03004KT 01/M02 A3035 RMK A01 T00091016  RH  084%=      5-min Rain = 0
KBWS 100050Z 02003KT 01/M02 A3035 RMK A01 T00101015  RH  084%=      5-min Rain = 0
KBWS 100055Z 03003KT 01/M01 A3035 RMK A01 T00111014  RH  084%=      5-min Rain = 0
KBWS 100100Z 02003KT 01/M01 A3035 RMK A01 T00111014  RH  084%=      5-min Rain = 0
KBWS 100105Z 02001KT 01/M02 A3035 RMK A01 T00111016  RH  083%=      5-min Rain = 0
KBWS 100110Z 02000KT 01/M02 A3035 RMK A01 T00101016  RH  084%=      5-min Rain = 0
KBWS 100115Z 00000KT 01/M02 A3035 RMK A01 T00081016  RH  085%=      5-min Rain = 0
KBWS 100120Z 00000KT 01/M02 A3035 RMK A01 T00081015  RH  085%=      5-min Rain = 0
KBWS 100125Z 00000KT 01/M02 A3035 RMK A01 T00091015  RH  085%=      5-min Rain = 0
KBWS 100130Z 02000KT 01/M02 A3035 RMK A01 T00081015  RH  085%=      5-min Rain = 0
KBWS 100135Z 02001KT 01/M01 A3036 RMK A01 T00101014  RH  085%=      5-min Rain = 0
KBWS 100140Z 02001KT 01/M02 A3036 RMK A01 T00091015  RH  085%=      5-min Rain = 0
KBWS 100145Z 00000KT 01/M01 A3035 RMK A01 T00101014  RH  085%=      5-min Rain = 0
KBWS 100150Z 02000KT 01/M02 A3035 RMK A01 T00121015  RH  083%=      5-min Rain = 0
KBWS 100155Z 02002KT 01/M02 A3035 RMK A01 T00081020  RH  083%=      5-min Rain = 0
KBWS 100200Z 02003KT 01/M02 A3036 RMK A01 T00061019  RH  084%=      5-min Rain = 0
KBWS 100205Z 01003KT 00/M02 A3036 RMK A01 T00031021  RH  085%=      5-min Rain = 0
KBWS 100210Z 36004KT 00/M02 A3037 RMK A01 T00021023  RH  085%=      5-min Rain = 0
KBWS 100215Z 35004KT M00/M02 A3037 RMK A01 T10021022  RH  088%=      5-min Rain = 0
KBWS 100220Z 34004KT M01/M02 A3037 RMK A01 T10061024  RH  088%=      5-min Rain = 0
KBWS 100225Z 27002KT M01/M02 A3037 RMK A01 T10091024  RH  090%=      5-min Rain = 0
KBWS 100230Z 28002KT M01/M02 A3037 RMK A01 T10071023  RH  090%=      5-min Rain = 0
KBWS 100235Z 31002KT M01/M02 A3037 RMK A01 T10061022  RH  090%=      5-min Rain = 0
KBWS 100240Z 31002KT M01/M03 A3037 RMK A01 T10091028  RH  088%=      5-min Rain = 0
KBWS 100245Z 30002KT M01/M03 A3037 RMK A01 T10131028  RH  090%=      5-min Rain = 0
KBWS 100250Z 29002KT M02/M03 A3038 RMK A01 T10161030  RH  091%=      5-min Rain = 0
KBWS 100255Z 30003KT M02/M03 A3038 RMK A01 T10191031  RH  093%=      5-min Rain = 0
KBWS 100300Z 32003KT M02/M03 A3038 RMK A01 T10201031  RH  093%=      5-min Rain = 0
KBWS 100305Z 32003KT M02/M03 A3038 RMK A01 T10181028  RH  094%=      5-min Rain = 0
KBWS 100310Z 32003KT M02/M03 A3038 RMK A01 T10201031  RH  094%=      5-min Rain = 0
KBWS 100315Z 30004KT M02/M03 A3038 RMK A01 T10211031  RH  094%=      5-min Rain = 0
KBWS 100320Z 31004KT M02/M03 A3038 RMK A01 T10201029  RH  095%=      5-min Rain = 0
KBWS 100325Z 31004KT M02/M03 A3038 RMK A01 T10211031  RH  094%=      5-min Rain = 0
KBWS 100330Z 30004KT M02/M03 A3038 RMK A01 T10221031  RH  095%=      5-min Rain = 0
KBWS 100335Z 30004KT M02/M03 A3038 RMK A01 T10221031  RH  095%=      5-min Rain = 0
KBWS 100340Z 31005KT M02/M03 A3038 RMK A01 T10221030  RH  095%=      5-min Rain = 0
KBWS 100345Z 31005KT M02/M03 A3038 RMK A01 T10221031  RH  094%=      5-min Rain = 0
KBWS 100350Z 31005KT M02/M03 A3038 RMK A01 T10221032  RH  095%=      5-min Rain = 0
KBWS 100355Z 32006KT M02/M03 A3038 RMK A01 T10231032  RH  094%=      5-min Rain = 0
KBWS 100400Z 32006KT M02/M03 A3038 RMK A01 T10231032  RH  095%=      5-min Rain = 0
KBWS 100405Z 31006KT M02/M03 A3038 RMK A01 T10221032  RH  094%=      5-min Rain = 0
KBWS 100410Z 31005KT M02/M03 A3038 RMK A01 T10231033  RH  094%=      5-min Rain = 0
KBWS 100415Z 32005KT M02/M03 A3038 RMK A01 T10231033  RH  094%=      5-min Rain = 0
KBWS 100420Z 32005KT M02/M03 A3038 RMK A01 T10221033  RH  093%=      5-min Rain = 0
KBWS 100425Z 31006KT M02/M03 A3038 RMK A01 T10221034  RH  093%=      5-min Rain = 0
KBWS 100430Z 31006KT M02/M04 A3039 RMK A01 T10231035  RH  093%=      5-min Rain = 0
KBWS 100435Z 31006KT M02/M04 A3039 RMK A01 T10241035  RH  093%=      5-min Rain = 0
KBWS 100440Z 30006KT M03/M04 A3039 RMK A01 T10251035  RH  094%=      5-min Rain = 0
KBWS 100445Z 30006KT M03/M04 A3039 RMK A01 T10251035  RH  094%=      5-min Rain = 0
KBWS 100450Z 31006KT M03/M04 A3039 RMK A01 T10261036  RH  094%=      5-min Rain = 0
KBWS 100455Z 30007KT M03/M04 A3039 RMK A01 T10261036  RH  094%=      5-min Rain = 0
KBWS 100500Z 30007KT M03/M04 A3039 RMK A01 T10251035  RH  094%=      5-min Rain = 0
KBWS 100505Z 30007KT M03/M04 A3039 RMK A01 T10251035  RH  094%=      5-min Rain = 0
KBWS 100510Z 29007KT M03/M04 A3039 RMK A01 T10251035  RH  094%=      5-min Rain = 0
KBWS 100515Z 29008KT M03/M04 A3039 RMK A01 T10251035  RH  094%=      5-min Rain = 0
KBWS 100520Z 30007KT M03/M04 A3039 RMK A01 T10261036  RH  094%=      5-min Rain = 0
KBWS 100525Z 30006KT M03/M04 A3039 RMK A01 T10251036  RH  093%=      5-min Rain = 0
KBWS 100530Z 30006KT M02/M04 A3039 RMK A01 T10241036  RH  093%=      5-min Rain = 0
KBWS 100535Z 29007KT M02/M04 A3039 RMK A01 T10231035  RH  093%=      5-min Rain = 0
KBWS 100540Z 30007KT M02/M04 A3039 RMK A01 T10231036  RH  092%=      5-min Rain = 0
KBWS 100545Z 30007KT M02/M04 A3039 RMK A01 T10241036  RH  092%=      5-min Rain = 0
KBWS 100550Z 30006KT M02/M04 A3039 RMK A01 T10231035  RH  092%=      5-min Rain = 0
KBWS 100555Z 30005KT M02/M04 A3039 RMK A01 T10241036  RH  092%=      5-min Rain = 0

Page generated in 0.0086 seconds.